createdAt,value
2022-10-20T00:10:00.179Z,7.0
2022-10-20T00:20:01.073Z,6.7
2022-10-20T00:30:01.535Z,6.9
2022-10-20T00:40:00.833Z,6.7
2022-10-20T00:50:00.142Z,6.7
2022-10-20T01:00:01.413Z,6.5
2022-10-20T01:10:01.079Z,6.5
2022-10-20T01:20:01.670Z,6.5
2022-10-20T01:30:00.131Z,6.3
2022-10-20T01:40:01.271Z,6.3
2022-10-20T01:50:00.986Z,6.3
2022-10-20T02:00:01.013Z,6.1
2022-10-20T02:10:01.202Z,6.0
2022-10-20T02:20:00.184Z,6.2
2022-10-20T02:30:03.592Z,5.9
2022-10-20T02:40:01.037Z,5.8
2022-10-20T02:50:01.013Z,5.7
2022-10-20T03:00:00.957Z,5.7
2022-10-20T03:10:01.036Z,5.6
2022-10-20T03:20:01.461Z,5.4
2022-10-20T03:30:01.832Z,5.4
2022-10-20T03:40:01.291Z,5.2
2022-10-20T03:50:00.208Z,5.4
2022-10-20T04:00:01.022Z,5.3
2022-10-20T04:10:00.114Z,5.3
2022-10-20T04:20:01.068Z,5.2
2022-10-20T04:30:00.994Z,5.1
2022-10-20T04:40:00.153Z,5.1
2022-10-20T04:50:00.964Z,5.0
2022-10-20T05:00:01.355Z,5.0
2022-10-20T05:10:01.685Z,4.8
2022-10-20T05:20:01.069Z,4.7
2022-10-20T05:30:01.363Z,4.8
2022-10-20T05:40:01.258Z,4.6
2022-10-20T05:50:00.129Z,4.7
2022-10-20T06:00:01.046Z,4.7
2022-10-20T06:10:01.035Z,4.7
2022-10-20T06:20:01.284Z,4.8
2022-10-20T06:30:01.001Z,4.9
2022-10-20T06:40:01.658Z,5.2
2022-10-20T06:50:00.136Z,5.6
2022-10-20T07:00:00.992Z,5.8
2022-10-20T07:10:00.975Z,6.1
2022-10-20T07:20:01.247Z,6.4
2022-10-20T07:30:01.281Z,6.7
2022-10-20T07:40:00.993Z,7.2
2022-10-20T07:50:01.075Z,7.9
2022-10-20T08:00:00.126Z,8.7
2022-10-20T08:10:00.168Z,9.2
2022-10-20T08:30:19.315Z,10.3
2022-10-20T08:40:01.555Z,10.7
2022-10-20T08:50:01.209Z,11.1
2022-10-20T09:00:01.291Z,11.4
2022-10-20T09:10:01.873Z,11.5
2022-10-20T09:20:01.025Z,11.5
2022-10-20T09:30:01.224Z,11.6
2022-10-20T09:40:00.143Z,12.0
2022-10-20T09:50:02.472Z,12.1
2022-10-20T10:00:01.329Z,12.5
2022-10-20T10:10:02.553Z,13.3
2022-10-20T10:20:01.267Z,13.9
2022-10-20T10:30:00.137Z,15.7
2022-10-20T10:40:01.036Z,16.5
2022-10-20T10:50:01.299Z,15.6
2022-10-20T11:00:00.187Z,15.9
2022-10-20T11:10:00.131Z,16.1
2022-10-20T11:20:02.742Z,17.9
2022-10-20T11:30:01.554Z,17.7
2022-10-20T11:40:03.144Z,17.4
2022-10-20T11:50:01.077Z,18.0
2022-10-20T12:00:01.053Z,18.6
2022-10-20T12:10:01.069Z,18.5
2022-10-20T12:20:01.043Z,18.4
2022-10-20T12:30:01.117Z,19.6
2022-10-20T12:40:01.269Z,19.0
2022-10-20T12:50:03.058Z,19.7
2022-10-20T13:00:01.063Z,20.3
2022-10-20T13:10:01.895Z,19.8
2022-10-20T13:20:01.540Z,19.0
2022-10-20T13:30:01.348Z,17.9
2022-10-20T13:40:00.177Z,18.9
2022-10-20T13:50:03.007Z,17.5
2022-10-20T14:00:03.018Z,16.5
2022-10-20T14:10:01.181Z,15.7
2022-10-20T14:20:01.072Z,16.7
2022-10-20T14:30:01.234Z,16.2
2022-10-20T14:40:01.256Z,16.6
2022-10-20T14:50:01.366Z,17.6
2022-10-20T15:00:01.027Z,15.0
2022-10-20T15:10:05.106Z,14.2
2022-10-20T15:20:01.269Z,14.3
2022-10-20T15:30:01.284Z,14.0
2022-10-20T16:00:01.616Z,12.9
2022-10-20T16:10:01.506Z,12.2
2022-10-20T16:20:00.149Z,11.9
2022-10-20T16:30:01.074Z,11.9
2022-10-20T16:40:01.042Z,12.0
2022-10-20T16:50:02.465Z,11.4
2022-10-20T17:00:01.492Z,11.3
2022-10-20T17:10:01.836Z,10.9
2022-10-20T17:20:01.006Z,10.9
2022-10-20T17:30:01.243Z,10.6
2022-10-20T17:40:02.734Z,10.5
2022-10-20T17:50:00.262Z,10.5
2022-10-20T18:00:03.263Z,10.5
2022-10-20T18:10:01.373Z,10.6
2022-10-20T18:20:00.159Z,10.4
2022-10-20T18:30:01.620Z,10.4
2022-10-20T18:40:01.032Z,10.3
2022-10-20T18:50:00.982Z,10.2
2022-10-20T19:00:01.229Z,10.5
2022-10-20T19:10:01.063Z,10.4
2022-10-20T19:20:01.257Z,10.3
2022-10-20T19:30:00.161Z,10.2
2022-10-20T19:40:01.080Z,10.1
2022-10-20T19:50:01.022Z,10.1
2022-10-20T20:00:01.317Z,9.9
2022-10-20T20:10:01.019Z,9.9
2022-10-20T20:20:00.978Z,9.6
2022-10-20T20:30:00.155Z,9.5
2022-10-20T20:40:01.547Z,9.6
2022-10-20T20:50:01.562Z,9.7
2022-10-20T21:00:03.353Z,9.5
2022-10-20T21:10:01.056Z,9.6
2022-10-20T21:20:01.228Z,9.7
2022-10-20T21:30:01.035Z,9.8
2022-10-20T21:40:01.028Z,9.8
2022-10-20T21:50:01.931Z,9.9
2022-10-20T22:00:01.184Z,10.0
2022-10-20T22:10:01.126Z,10.1
2022-10-20T22:20:01.918Z,9.9
2022-10-20T22:30:01.578Z,10.0
2022-10-20T22:40:01.047Z,9.8
2022-10-20T22:50:00.162Z,9.4
2022-10-20T23:00:00.123Z,9.2
2022-10-20T23:10:01.259Z,8.9
2022-10-20T23:20:00.142Z,8.9
2022-10-20T23:30:00.130Z,8.9
2022-10-20T23:40:01.240Z,9.0
2022-10-20T23:50:01.270Z,9.0
